This is the latest recevied weather packets stored in our database for station/object 9M4RBN-3. If no packets are shown the sender has not sent any weather packets the latest 10 day(s).
| Time | Temp. | Humidity | Pressure | Rain* | Wind** | Luminosity | Snow |
|---|---|---|---|---|---|---|---|
| 1778274408 | 25° C | 48% | 1013.2 hPa | - | - | - | - |
| 1778273509 | 25.56° C | 50% | 1013.1 hPa | - | - | - | - |
| 1778272608 | 26.11° C | 53% | 1013.2 hPa | - | - | - | - |
| 1778271708 | 26.67° C | 64% | 1013.1 hPa | - | - | - | - |
| 1778270808 | 27.22° C | 76% | 1013.1 hPa | - | - | - | - |
| 1778269908 | 27.22° C | 76% | 1013.2 hPa | - | - | - | - |
| 1778269008 | 27.22° C | 76% | 1013.4 hPa | - | - | - | - |
| 1778268108 | 27.22° C | 76% | 1013.5 hPa | - | - | - | - |
| 1778267208 | 27.22° C | 76% | 1013.5 hPa | - | - | - | - |
| 1778266308 | 27.22° C | 76% | 1013.7 hPa | - | - | - | - |
| 1778265408 | 27.22° C | 75% | 1013.7 hPa | - | - | - | - |
| 1778264508 | 26.67° C | 74% | 1013.8 hPa | - | - | - | - |
| 1778263608 | 26.67° C | 74% | 1014.2 hPa | - | - | - | - |
| 1778262708 | 26.67° C | 73% | 1014.4 hPa | - | - | - | - |
| 1778261808 | 26.67° C | 72% | 1014.8 hPa | - | - | - | - |
| 1778260908 | 26.67° C | 70% | 1015.2 hPa | - | - | - | - |
| 1778260008 | 26.11° C | 68% | 1015.4 hPa | - | - | - | - |
| 1778259108 | 26.11° C | 67% | 1015.7 hPa | - | - | - | - |
| 1778258208 | 25.56° C | 63% | 1016 hPa | - | - | - | - |
| 1778257308 | 25° C | 57% | 1016.2 hPa | - | - | - | - |
| 1778256407 | 25° C | 50% | 1016.3 hPa | - | - | - | - |
| 1778255507 | 25° C | 53% | 1016.4 hPa | - | - | - | - |
| 1778254607 | 25.56° C | 62% | 1016.5 hPa | - | - | - | - |
| 1778253707 | 25.56° C | 74% | 1016.5 hPa | - | - | - | - |
| 1778252807 | 25° C | 65% | 1016.3 hPa | - | - | - | - |
* Rain since midnight (hover to see other rain measurements)
** Current wind speed in m/s (hover to see current wind gust speed)